sensor_id;sensor_type;location;lat;lon;timestamp;P1;durP1;ratioP1;P2;durP2;ratioP2
31206;SDS011;17834;52.992;8.856;2023-11-21T00:02:09;24.65;;;9.32;;
31206;SDS011;17834;52.992;8.856;2023-11-21T00:04:35;27.48;;;10.63;;
31206;SDS011;17834;52.992;8.856;2023-11-21T00:07:01;27.00;;;10.02;;
31206;SDS011;17834;52.992;8.856;2023-11-21T00:09:27;25.23;;;9.93;;
31206;SDS011;17834;52.992;8.856;2023-11-21T00:11:52;28.00;;;9.32;;
31206;SDS011;17834;52.992;8.856;2023-11-21T00:14:18;31.33;;;11.48;;
31206;SDS011;17834;52.992;8.856;2023-11-21T00:16:44;22.05;;;10.40;;
31206;SDS011;17834;52.992;8.856;2023-11-21T00:19:11;26.95;;;11.68;;
31206;SDS011;17834;52.992;8.856;2023-11-21T00:21:37;27.45;;;9.95;;
31206;SDS011;17834;52.992;8.856;2023-11-21T00:24:03;27.67;;;9.93;;
31206;SDS011;17834;52.992;8.856;2023-11-21T00:26:29;27.58;;;10.98;;
31206;SDS011;17834;52.992;8.856;2023-11-21T00:29:01;24.58;;;10.73;;
31206;SDS011;17834;52.992;8.856;2023-11-21T00:31:27;25.48;;;10.05;;
31206;SDS011;17834;52.992;8.856;2023-11-21T00:33:53;25.23;;;9.88;;
31206;SDS011;17834;52.992;8.856;2023-11-21T00:36:20;22.88;;;9.75;;
31206;SDS011;17834;52.992;8.856;2023-11-21T00:38:46;27.45;;;10.20;;
31206;SDS011;17834;52.992;8.856;2023-11-21T00:41:13;25.58;;;9.80;;
31206;SDS011;17834;52.992;8.856;2023-11-21T00:43:39;27.17;;;11.02;;
31206;SDS011;17834;52.992;8.856;2023-11-21T00:46:05;23.48;;;9.45;;
31206;SDS011;17834;52.992;8.856;2023-11-21T00:48:34;25.73;;;10.20;;
31206;SDS011;17834;52.992;8.856;2023-11-21T00:51:00;36.95;;;11.95;;
31206;SDS011;17834;52.992;8.856;2023-11-21T00:53:26;25.92;;;10.05;;
31206;SDS011;17834;52.992;8.856;2023-11-21T00:55:52;32.58;;;11.20;;
31206;SDS011;17834;52.992;8.856;2023-11-21T00:58:22;23.45;;;9.68;;
31206;SDS011;17834;52.992;8.856;2023-11-21T01:00:48;26.77;;;9.73;;
31206;SDS011;17834;52.992;8.856;2023-11-21T01:03:13;25.20;;;9.90;;
31206;SDS011;17834;52.992;8.856;2023-11-21T01:05:39;25.25;;;9.43;;
31206;SDS011;17834;52.992;8.856;2023-11-21T01:08:05;26.60;;;10.55;;
31206;SDS011;17834;52.992;8.856;2023-11-21T01:10:31;31.40;;;10.98;;
31206;SDS011;17834;52.992;8.856;2023-11-21T01:12:59;25.80;;;10.30;;
31206;SDS011;17834;52.992;8.856;2023-11-21T01:15:25;30.33;;;10.73;;
31206;SDS011;17834;52.992;8.856;2023-11-21T01:17:51;36.55;;;11.05;;
31206;SDS011;17834;52.992;8.856;2023-11-21T01:20:18;28.58;;;10.75;;
31206;SDS011;17834;52.992;8.856;2023-11-21T01:22:43;25.13;;;9.77;;
31206;SDS011;17834;52.992;8.856;2023-11-21T01:25:10;32.78;;;11.15;;
31206;SDS011;17834;52.992;8.856;2023-11-21T01:27:36;33.72;;;10.85;;
31206;SDS011;17834;52.992;8.856;2023-11-21T01:30:02;30.10;;;10.27;;
31206;SDS011;17834;52.992;8.856;2023-11-21T01:32:29;31.48;;;11.00;;
31206;SDS011;17834;52.992;8.856;2023-11-21T01:34:55;25.10;;;10.38;;
31206;SDS011;17834;52.992;8.856;2023-11-21T01:37:21;35.20;;;12.05;;
31206;SDS011;17834;52.992;8.856;2023-11-21T01:39:47;39.00;;;12.38;;
31206;SDS011;17834;52.992;8.856;2023-11-21T01:42:13;33.83;;;11.77;;
31206;SDS011;17834;52.992;8.856;2023-11-21T01:44:39;33.05;;;11.50;;
31206;SDS011;17834;52.992;8.856;2023-11-21T01:47:05;40.15;;;13.90;;
31206;SDS011;17834;52.992;8.856;2023-11-21T01:49:32;29.35;;;12.57;;
31206;SDS011;17834;52.992;8.856;2023-11-21T01:51:58;32.83;;;10.57;;
31206;SDS011;17834;52.992;8.856;2023-11-21T01:54:24;45.53;;;14.00;;
31206;SDS011;17834;52.992;8.856;2023-11-21T01:56:50;31.35;;;12.35;;
31206;SDS011;17834;52.992;8.856;2023-11-21T01:59:20;43.17;;;12.93;;
31206;SDS011;17834;52.992;8.856;2023-11-21T02:01:47;39.00;;;12.32;;
31206;SDS011;17834;52.992;8.856;2023-11-21T02:04:15;32.42;;;11.38;;
31206;SDS011;17834;52.992;8.856;2023-11-21T02:06:41;37.45;;;11.55;;
31206;SDS011;17834;52.992;8.856;2023-11-21T02:09:07;42.00;;;12.23;;
31206;SDS011;17834;52.992;8.856;2023-11-21T02:11:34;37.75;;;12.60;;
31206;SDS011;17834;52.992;8.856;2023-11-21T02:14:00;37.72;;;12.88;;
31206;SDS011;17834;52.992;8.856;2023-11-21T02:16:26;30.00;;;12.23;;
31206;SDS011;17834;52.992;8.856;2023-11-21T02:18:52;38.83;;;13.02;;
31206;SDS011;17834;52.992;8.856;2023-11-21T02:21:19;31.58;;;10.88;;
31206;SDS011;17834;52.992;8.856;2023-11-21T02:23:45;40.85;;;11.90;;
31206;SDS011;17834;52.992;8.856;2023-11-21T02:26:12;34.70;;;12.13;;
31206;SDS011;17834;52.992;8.856;2023-11-21T02:28:38;31.15;;;11.85;;
31206;SDS011;17834;52.992;8.856;2023-11-21T02:31:05;33.47;;;11.40;;
31206;SDS011;17834;52.992;8.856;2023-11-21T02:33:32;34.67;;;10.77;;
31206;SDS011;17834;52.992;8.856;2023-11-21T02:35:59;36.75;;;11.15;;
31206;SDS011;17834;52.992;8.856;2023-11-21T02:38:25;26.85;;;10.93;;
31206;SDS011;17834;52.992;8.856;2023-11-21T02:40:51;25.98;;;9.90;;
31206;SDS011;17834;52.992;8.856;2023-11-21T02:43:17;31.35;;;11.35;;
31206;SDS011;17834;52.992;8.856;2023-11-21T02:45:43;39.90;;;11.90;;
31206;SDS011;17834;52.992;8.856;2023-11-21T02:48:09;37.40;;;11.55;;
31206;SDS011;17834;52.992;8.856;2023-11-21T02:50:35;33.20;;;12.32;;
31206;SDS011;17834;52.992;8.856;2023-11-21T02:53:02;37.10;;;12.15;;
31206;SDS011;17834;52.992;8.856;2023-11-21T02:55:28;34.50;;;11.23;;
31206;SDS011;17834;52.992;8.856;2023-11-21T02:57:54;37.97;;;13.00;;
31206;SDS011;17834;52.992;8.856;2023-11-21T03:00:23;43.85;;;12.77;;
31206;SDS011;17834;52.992;8.856;2023-11-21T03:02:51;35.13;;;11.80;;
31206;SDS011;17834;52.992;8.856;2023-11-21T03:05:18;35.50;;;12.48;;
31206;SDS011;17834;52.992;8.856;2023-11-21T03:07:44;42.33;;;11.95;;
31206;SDS011;17834;52.992;8.856;2023-11-21T03:10:10;41.08;;;11.82;;
31206;SDS011;17834;52.992;8.856;2023-11-21T03:12:36;32.83;;;11.95;;
31206;SDS011;17834;52.992;8.856;2023-11-21T03:15:02;38.75;;;12.85;;
31206;SDS011;17834;52.992;8.856;2023-11-21T03:17:29;33.08;;;12.05;;
31206;SDS011;17834;52.992;8.856;2023-11-21T03:19:54;31.13;;;11.55;;
31206;SDS011;17834;52.992;8.856;2023-11-21T03:22:22;35.78;;;12.20;;
31206;SDS011;17834;52.992;8.856;2023-11-21T03:24:48;35.58;;;11.77;;
31206;SDS011;17834;52.992;8.856;2023-11-21T03:27:14;36.60;;;12.32;;
31206;SDS011;17834;52.992;8.856;2023-11-21T03:29:40;26.95;;;10.05;;
31206;SDS011;17834;52.992;8.856;2023-11-21T03:32:06;26.08;;;9.32;;
31206;SDS011;17834;52.992;8.856;2023-11-21T03:34:32;32.10;;;11.07;;
31206;SDS011;17834;52.992;8.856;2023-11-21T03:36:58;28.27;;;10.82;;
31206;SDS011;17834;52.992;8.856;2023-11-21T03:39:24;27.27;;;9.60;;
31206;SDS011;17834;52.992;8.856;2023-11-21T03:41:50;27.08;;;9.70;;
31206;SDS011;17834;52.992;8.856;2023-11-21T03:44:17;27.60;;;9.88;;
31206;SDS011;17834;52.992;8.856;2023-11-21T03:46:43;26.80;;;9.93;;
31206;SDS011;17834;52.992;8.856;2023-11-21T03:49:09;29.50;;;9.60;;
31206;SDS011;17834;52.992;8.856;2023-11-21T03:51:36;31.50;;;10.68;;
31206;SDS011;17834;52.992;8.856;2023-11-21T03:54:02;30.35;;;10.45;;
31206;SDS011;17834;52.992;8.856;2023-11-21T03:56:28;34.47;;;11.48;;
31206;SDS011;17834;52.992;8.856;2023-11-21T03:58:54;33.55;;;10.82;;
31206;SDS011;17834;52.992;8.856;2023-11-21T04:01:21;35.33;;;11.63;;
31206;SDS011;17834;52.992;8.856;2023-11-21T04:03:47;37.80;;;11.50;;
31206;SDS011;17834;52.992;8.856;2023-11-21T04:06:13;40.25;;;13.27;;
31206;SDS011;17834;52.992;8.856;2023-11-21T04:08:39;35.28;;;11.48;;
31206;SDS011;17834;52.992;8.856;2023-11-21T04:11:05;35.92;;;12.07;;
31206;SDS011;17834;52.992;8.856;2023-11-21T04:13:31;40.90;;;13.07;;
31206;SDS011;17834;52.992;8.856;2023-11-21T04:15:57;42.13;;;13.18;;
31206;SDS011;17834;52.992;8.856;2023-11-21T04:18:23;39.10;;;11.07;;
31206;SDS011;17834;52.992;8.856;2023-11-21T04:20:49;32.30;;;10.73;;
31206;SDS011;17834;52.992;8.856;2023-11-21T04:23:15;31.25;;;9.63;;
31206;SDS011;17834;52.992;8.856;2023-11-21T04:25:41;24.63;;;8.38;;
31206;SDS011;17834;52.992;8.856;2023-11-21T04:28:07;21.42;;;7.72;;
31206;SDS011;17834;52.992;8.856;2023-11-21T04:30:33;17.27;;;6.68;;
31206;SDS011;17834;52.992;8.856;2023-11-21T04:32:59;16.13;;;6.20;;
31206;SDS011;17834;52.992;8.856;2023-11-21T04:35:25;13.68;;;5.93;;
31206;SDS011;17834;52.992;8.856;2023-11-21T04:37:51;17.73;;;6.60;;
31206;SDS011;17834;52.992;8.856;2023-11-21T04:40:17;19.33;;;8.38;;
31206;SDS011;17834;52.992;8.856;2023-11-21T04:42:43;19.92;;;7.72;;
31206;SDS011;17834;52.992;8.856;2023-11-21T04:45:09;22.50;;;7.43;;
31206;SDS011;17834;52.992;8.856;2023-11-21T04:47:36;22.27;;;8.55;;
31206;SDS011;17834;52.992;8.856;2023-11-21T04:50:03;19.70;;;7.82;;
31206;SDS011;17834;52.992;8.856;2023-11-21T04:52:29;25.35;;;7.55;;
31206;SDS011;17834;52.992;8.856;2023-11-21T04:54:55;27.63;;;7.97;;
31206;SDS011;17834;52.992;8.856;2023-11-21T04:57:23;21.83;;;8.13;;
31206;SDS011;17834;52.992;8.856;2023-11-21T04:59:49;26.75;;;8.07;;
31206;SDS011;17834;52.992;8.856;2023-11-21T05:02:15;16.67;;;6.70;;
31206;SDS011;17834;52.992;8.856;2023-11-21T05:04:41;17.95;;;6.65;;
31206;SDS011;17834;52.992;8.856;2023-11-21T05:07:10;24.08;;;7.47;;
31206;SDS011;17834;52.992;8.856;2023-11-21T05:09:40;17.13;;;6.38;;
31206;SDS011;17834;52.992;8.856;2023-11-21T05:12:06;22.75;;;7.93;;
31206;SDS011;17834;52.992;8.856;2023-11-21T05:14:32;23.42;;;8.20;;
31206;SDS011;17834;52.992;8.856;2023-11-21T05:16:58;26.25;;;7.75;;
31206;SDS011;17834;52.992;8.856;2023-11-21T05:19:24;18.10;;;6.85;;
31206;SDS011;17834;52.992;8.856;2023-11-21T05:21:50;26.58;;;8.57;;
31206;SDS011;17834;52.992;8.856;2023-11-21T05:24:16;19.08;;;8.15;;
31206;SDS011;17834;52.992;8.856;2023-11-21T05:26:42;21.65;;;8.07;;
31206;SDS011;17834;52.992;8.856;2023-11-21T05:29:08;21.85;;;8.25;;
31206;SDS011;17834;52.992;8.856;2023-11-21T05:31:35;25.85;;;9.52;;
31206;SDS011;17834;52.992;8.856;2023-11-21T05:34:01;20.70;;;8.45;;
31206;SDS011;17834;52.992;8.856;2023-11-21T05:36:27;27.17;;;8.88;;
31206;SDS011;17834;52.992;8.856;2023-11-21T05:38:53;22.83;;;9.88;;
31206;SDS011;17834;52.992;8.856;2023-11-21T05:41:19;25.38;;;10.43;;
31206;SDS011;17834;52.992;8.856;2023-11-21T05:43:46;29.90;;;10.90;;
31206;SDS011;17834;52.992;8.856;2023-11-21T05:46:12;22.52;;;9.85;;
31206;SDS011;17834;52.992;8.856;2023-11-21T05:48:38;26.85;;;10.70;;
31206;SDS011;17834;52.992;8.856;2023-11-21T05:51:05;27.98;;;10.38;;
31206;SDS011;17834;52.992;8.856;2023-11-21T05:53:31;24.40;;;9.93;;
31206;SDS011;17834;52.992;8.856;2023-11-21T05:55:57;29.48;;;10.80;;
31206;SDS011;17834;52.992;8.856;2023-11-21T05:58:23;27.08;;;9.90;;
31206;SDS011;17834;52.992;8.856;2023-11-21T06:00:49;25.75;;;9.27;;
31206;SDS011;17834;52.992;8.856;2023-11-21T06:03:15;24.55;;;9.00;;
31206;SDS011;17834;52.992;8.856;2023-11-21T06:05:42;26.05;;;9.48;;
31206;SDS011;17834;52.992;8.856;2023-11-21T06:08:08;23.38;;;8.82;;
31206;SDS011;17834;52.992;8.856;2023-11-21T06:10:35;26.80;;;9.68;;
31206;SDS011;17834;52.992;8.856;2023-11-21T06:13:01;25.52;;;9.88;;
31206;SDS011;17834;52.992;8.856;2023-11-21T06:15:28;27.63;;;11.15;;
31206;SDS011;17834;52.992;8.856;2023-11-21T06:17:54;24.33;;;9.65;;
31206;SDS011;17834;52.992;8.856;2023-11-21T06:20:20;24.17;;;9.48;;
31206;SDS011;17834;52.992;8.856;2023-11-21T06:22:48;28.33;;;9.63;;
31206;SDS011;17834;52.992;8.856;2023-11-21T06:25:15;23.33;;;9.63;;
31206;SDS011;17834;52.992;8.856;2023-11-21T06:27:43;27.70;;;10.52;;
31206;SDS011;17834;52.992;8.856;2023-11-21T06:30:15;23.70;;;9.82;;
31206;SDS011;17834;52.992;8.856;2023-11-21T06:32:43;21.90;;;9.25;;
31206;SDS011;17834;52.992;8.856;2023-11-21T06:35:10;17.35;;;7.20;;
31206;SDS011;17834;52.992;8.856;2023-11-21T06:37:36;19.50;;;8.73;;
31206;SDS011;17834;52.992;8.856;2023-11-21T06:40:03;19.77;;;7.78;;
31206;SDS011;17834;52.992;8.856;2023-11-21T06:42:29;22.23;;;8.27;;
31206;SDS011;17834;52.992;8.856;2023-11-21T06:44:55;18.42;;;8.07;;
31206;SDS011;17834;52.992;8.856;2023-11-21T06:47:24;19.95;;;8.43;;
31206;SDS011;17834;52.992;8.856;2023-11-21T06:49:51;18.50;;;8.15;;
31206;SDS011;17834;52.992;8.856;2023-11-21T06:52:17;18.73;;;7.82;;
31206;SDS011;17834;52.992;8.856;2023-11-21T06:54:43;20.63;;;8.23;;
31206;SDS011;17834;52.992;8.856;2023-11-21T06:57:10;21.00;;;8.82;;
31206;SDS011;17834;52.992;8.856;2023-11-21T06:59:36;16.80;;;7.28;;
31206;SDS011;17834;52.992;8.856;2023-11-21T07:02:02;20.77;;;8.10;;
31206;SDS011;17834;52.992;8.856;2023-11-21T07:04:29;19.00;;;7.97;;
31206;SDS011;17834;52.992;8.856;2023-11-21T07:06:55;17.67;;;7.53;;
31206;SDS011;17834;52.992;8.856;2023-11-21T07:09:21;19.50;;;7.93;;
31206;SDS011;17834;52.992;8.856;2023-11-21T07:11:47;19.05;;;8.05;;
31206;SDS011;17834;52.992;8.856;2023-11-21T07:14:14;23.40;;;9.20;;
31206;SDS011;17834;52.992;8.856;2023-11-21T07:16:40;25.33;;;8.75;;
31206;SDS011;17834;52.992;8.856;2023-11-21T07:19:06;26.77;;;9.63;;
31206;SDS011;17834;52.992;8.856;2023-11-21T07:21:33;20.17;;;8.40;;
31206;SDS011;17834;52.992;8.856;2023-11-21T07:24:00;18.58;;;8.32;;
31206;SDS011;17834;52.992;8.856;2023-11-21T07:26:29;20.38;;;9.02;;
31206;SDS011;17834;52.992;8.856;2023-11-21T07:28:55;21.10;;;8.70;;
31206;SDS011;17834;52.992;8.856;2023-11-21T07:31:21;22.50;;;9.07;;
31206;SDS011;17834;52.992;8.856;2023-11-21T07:33:48;19.60;;;8.25;;
31206;SDS011;17834;52.992;8.856;2023-11-21T07:36:14;24.50;;;9.15;;
31206;SDS011;17834;52.992;8.856;2023-11-21T07:38:41;19.80;;;8.55;;
31206;SDS011;17834;52.992;8.856;2023-11-21T07:41:08;18.75;;;8.30;;
31206;SDS011;17834;52.992;8.856;2023-11-21T07:43:35;22.13;;;9.35;;
31206;SDS011;17834;52.992;8.856;2023-11-21T07:46:01;23.83;;;9.75;;
31206;SDS011;17834;52.992;8.856;2023-11-21T07:48:30;24.70;;;9.77;;
31206;SDS011;17834;52.992;8.856;2023-11-21T07:50:57;23.23;;;9.30;;
31206;SDS011;17834;52.992;8.856;2023-11-21T07:53:26;19.83;;;9.45;;
31206;SDS011;17834;52.992;8.856;2023-11-21T07:55:53;25.20;;;10.10;;
31206;SDS011;17834;52.992;8.856;2023-11-21T07:58:20;20.33;;;8.70;;
31206;SDS011;17834;52.992;8.856;2023-11-21T08:00:46;26.10;;;10.07;;
31206;SDS011;17834;52.992;8.856;2023-11-21T08:03:13;23.05;;;9.38;;
31206;SDS011;17834;52.992;8.856;2023-11-21T08:05:39;23.48;;;9.25;;
31206;SDS011;17834;52.992;8.856;2023-11-21T08:08:05;22.27;;;9.52;;
31206;SDS011;17834;52.992;8.856;2023-11-21T08:10:31;21.65;;;9.10;;
31206;SDS011;17834;52.992;8.856;2023-11-21T08:12:57;20.42;;;8.90;;
31206;SDS011;17834;52.992;8.856;2023-11-21T08:15:23;21.45;;;9.27;;
31206;SDS011;17834;52.992;8.856;2023-11-21T08:17:49;23.52;;;9.75;;
31206;SDS011;17834;52.992;8.856;2023-11-21T08:20:15;24.77;;;9.18;;
31206;SDS011;17834;52.992;8.856;2023-11-21T08:22:41;22.33;;;8.75;;
31206;SDS011;17834;52.992;8.856;2023-11-21T08:25:08;21.95;;;9.02;;
31206;SDS011;17834;52.992;8.856;2023-11-21T08:27:34;20.83;;;8.70;;
31206;SDS011;17834;52.992;8.856;2023-11-21T08:30:02;23.17;;;8.23;;
31206;SDS011;17834;52.992;8.856;2023-11-21T08:32:29;20.08;;;8.50;;
31206;SDS011;17834;52.992;8.856;2023-11-21T08:35:01;22.20;;;8.48;;
31206;SDS011;17834;52.992;8.856;2023-11-21T08:37:27;16.75;;;7.40;;
31206;SDS011;17834;52.992;8.856;2023-11-21T08:39:55;17.67;;;7.80;;
31206;SDS011;17834;52.992;8.856;2023-11-21T08:42:21;20.45;;;9.07;;
31206;SDS011;17834;52.992;8.856;2023-11-21T08:44:48;23.50;;;9.00;;
31206;SDS011;17834;52.992;8.856;2023-11-21T08:47:13;19.30;;;9.85;;
31206;SDS011;17834;52.992;8.856;2023-11-21T08:49:39;19.60;;;8.05;;
31206;SDS011;17834;52.992;8.856;2023-11-21T08:52:05;20.48;;;8.20;;
31206;SDS011;17834;52.992;8.856;2023-11-21T08:54:31;20.63;;;8.32;;
31206;SDS011;17834;52.992;8.856;2023-11-21T08:56:59;22.00;;;9.02;;
31206;SDS011;17834;52.992;8.856;2023-11-21T08:59:25;20.13;;;8.18;;
31206;SDS011;17834;52.992;8.856;2023-11-21T09:01:51;19.30;;;8.57;;
31206;SDS011;17834;52.992;8.856;2023-11-21T09:04:17;19.92;;;9.13;;
31206;SDS011;17834;52.992;8.856;2023-11-21T09:06:43;20.95;;;8.55;;
31206;SDS011;17834;52.992;8.856;2023-11-21T09:09:09;18.02;;;7.82;;
31206;SDS011;17834;52.992;8.856;2023-11-21T09:11:36;17.52;;;8.95;;
31206;SDS011;17834;52.992;8.856;2023-11-21T09:14:02;22.25;;;9.45;;
31206;SDS011;17834;52.992;8.856;2023-11-21T09:16:28;18.17;;;8.82;;
31206;SDS011;17834;52.992;8.856;2023-11-21T09:18:55;20.65;;;9.13;;
31206;SDS011;17834;52.992;8.856;2023-11-21T09:21:20;21.27;;;9.15;;
31206;SDS011;17834;52.992;8.856;2023-11-21T09:23:47;21.23;;;8.60;;
31206;SDS011;17834;52.992;8.856;2023-11-21T09:26:13;19.83;;;7.80;;
31206;SDS011;17834;52.992;8.856;2023-11-21T09:28:41;16.13;;;7.63;;
31206;SDS011;17834;52.992;8.856;2023-11-21T09:31:11;16.70;;;7.72;;
31206;SDS011;17834;52.992;8.856;2023-11-21T09:33:37;20.75;;;9.25;;
31206;SDS011;17834;52.992;8.856;2023-11-21T09:36:03;19.33;;;8.65;;
31206;SDS011;17834;52.992;8.856;2023-11-21T09:38:30;16.05;;;7.60;;
31206;SDS011;17834;52.992;8.856;2023-11-21T09:40:56;17.65;;;7.45;;
31206;SDS011;17834;52.992;8.856;2023-11-21T09:43:23;16.23;;;7.47;;
31206;SDS011;17834;52.992;8.856;2023-11-21T09:45:54;16.70;;;7.80;;
31206;SDS011;17834;52.992;8.856;2023-11-21T09:48:22;18.50;;;7.72;;
31206;SDS011;17834;52.992;8.856;2023-11-21T09:50:49;16.90;;;7.93;;
31206;SDS011;17834;52.992;8.856;2023-11-21T09:55:42;13.45;;;6.88;;
31206;SDS011;17834;52.992;8.856;2023-11-21T09:58:09;15.55;;;7.53;;
31206;SDS011;17834;52.992;8.856;2023-11-21T10:00:38;15.23;;;7.93;;
31206;SDS011;17834;52.992;8.856;2023-11-21T10:03:05;15.43;;;7.53;;
31206;SDS011;17834;52.992;8.856;2023-11-21T10:05:31;11.32;;;6.80;;
31206;SDS011;17834;52.992;8.856;2023-11-21T10:07:59;14.48;;;6.70;;
31206;SDS011;17834;52.992;8.856;2023-11-21T10:10:26;14.63;;;6.93;;
31206;SDS011;17834;52.992;8.856;2023-11-21T10:12:55;15.15;;;6.60;;
31206;SDS011;17834;52.992;8.856;2023-11-21T10:15:22;14.73;;;7.22;;
31206;SDS011;17834;52.992;8.856;2023-11-21T10:17:50;9.82;;;5.68;;
31206;SDS011;17834;52.992;8.856;2023-11-21T10:20:18;13.77;;;6.03;;
31206;SDS011;17834;52.992;8.856;2023-11-21T10:22:44;12.73;;;6.50;;
31206;SDS011;17834;52.992;8.856;2023-11-21T10:25:11;13.05;;;6.57;;
31206;SDS011;17834;52.992;8.856;2023-11-21T10:27:39;10.35;;;5.55;;
31206;SDS011;17834;52.992;8.856;2023-11-21T10:30:06;12.00;;;5.95;;
31206;SDS011;17834;52.992;8.856;2023-11-21T10:32:41;11.90;;;6.00;;
31206;SDS011;17834;52.992;8.856;2023-11-21T10:35:07;12.55;;;6.82;;
31206;SDS011;17834;52.992;8.856;2023-11-21T10:37:38;12.32;;;6.30;;
31206;SDS011;17834;52.992;8.856;2023-11-21T10:40:05;13.93;;;6.05;;
31206;SDS011;17834;52.992;8.856;2023-11-21T10:42:32;9.32;;;5.72;;
31206;SDS011;17834;52.992;8.856;2023-11-21T10:44:58;13.00;;;6.00;;
31206;SDS011;17834;52.992;8.856;2023-11-21T10:47:24;13.27;;;6.13;;
31206;SDS011;17834;52.992;8.856;2023-11-21T10:49:51;11.32;;;6.32;;
31206;SDS011;17834;52.992;8.856;2023-11-21T10:52:20;11.35;;;5.82;;
31206;SDS011;17834;52.992;8.856;2023-11-21T10:54:46;13.85;;;6.03;;
31206;SDS011;17834;52.992;8.856;2023-11-21T10:57:13;12.32;;;6.80;;
31206;SDS011;17834;52.992;8.856;2023-11-21T10:59:42;10.50;;;5.38;;
31206;SDS011;17834;52.992;8.856;2023-11-21T11:02:23;11.18;;;6.07;;
31206;SDS011;17834;52.992;8.856;2023-11-21T11:04:57;12.10;;;6.00;;
31206;SDS011;17834;52.992;8.856;2023-11-21T11:07:27;10.18;;;5.90;;
31206;SDS011;17834;52.992;8.856;2023-11-21T11:09:55;11.52;;;5.70;;
31206;SDS011;17834;52.992;8.856;2023-11-21T11:12:21;11.75;;;5.55;;
31206;SDS011;17834;52.992;8.856;2023-11-21T11:14:48;12.20;;;5.72;;
31206;SDS011;17834;52.992;8.856;2023-11-21T11:17:14;11.80;;;6.00;;
31206;SDS011;17834;52.992;8.856;2023-11-21T11:19:41;14.38;;;5.80;;
31206;SDS011;17834;52.992;8.856;2023-11-21T11:22:16;12.10;;;6.30;;
31206;SDS011;17834;52.992;8.856;2023-11-21T11:30:24;11.43;;;6.23;;
31206;SDS011;17834;52.992;8.856;2023-11-21T11:35:29;13.18;;;6.57;;
31206;SDS011;17834;52.992;8.856;2023-11-21T11:37:59;11.57;;;6.00;;
31206;SDS011;17834;52.992;8.856;2023-11-21T11:40:41;13.95;;;6.72;;
31206;SDS011;17834;52.992;8.856;2023-11-21T11:43:07;14.93;;;7.10;;
31206;SDS011;17834;52.992;8.856;2023-11-21T11:45:33;10.27;;;6.15;;
31206;SDS011;17834;52.992;8.856;2023-11-21T11:48:06;14.73;;;6.97;;
31206;SDS011;17834;52.992;8.856;2023-11-21T11:50:33;14.32;;;6.70;;
31206;SDS011;17834;52.992;8.856;2023-11-21T11:53:15;13.18;;;6.15;;
31206;SDS011;17834;52.992;8.856;2023-11-21T11:55:41;11.90;;;6.65;;
31206;SDS011;17834;52.992;8.856;2023-11-21T11:58:07;11.30;;;6.03;;
31206;SDS011;17834;52.992;8.856;2023-11-21T12:00:34;8.48;;;4.90;;
31206;SDS011;17834;52.992;8.856;2023-11-21T12:03:03;11.68;;;5.80;;
31206;SDS011;17834;52.992;8.856;2023-11-21T12:05:30;9.18;;;5.50;;
31206;SDS011;17834;52.992;8.856;2023-11-21T12:08:17;9.70;;;5.28;;
31206;SDS011;17834;52.992;8.856;2023-11-21T12:10:43;11.50;;;5.70;;
31206;SDS011;17834;52.992;8.856;2023-11-21T12:13:10;10.07;;;5.82;;
31206;SDS011;17834;52.992;8.856;2023-11-21T12:15:37;10.43;;;5.45;;
31206;SDS011;17834;52.992;8.856;2023-11-21T12:18:03;8.88;;;5.20;;
31206;SDS011;17834;52.992;8.856;2023-11-21T12:20:30;10.63;;;5.18;;
31206;SDS011;17834;52.992;8.856;2023-11-21T12:22:57;11.38;;;5.15;;
31206;SDS011;17834;52.992;8.856;2023-11-21T12:25:27;8.45;;;4.80;;
31206;SDS011;17834;52.992;8.856;2023-11-21T12:28:00;11.32;;;5.32;;
31206;SDS011;17834;52.992;8.856;2023-11-21T12:30:28;8.20;;;4.50;;
31206;SDS011;17834;52.992;8.856;2023-11-21T12:32:56;8.15;;;4.85;;
31206;SDS011;17834;52.992;8.856;2023-11-21T12:35:23;9.00;;;5.10;;
31206;SDS011;17834;52.992;8.856;2023-11-21T12:37:50;9.25;;;4.45;;
31206;SDS011;17834;52.992;8.856;2023-11-21T12:40:17;9.70;;;4.57;;
31206;SDS011;17834;52.992;8.856;2023-11-21T12:42:47;8.23;;;5.13;;
31206;SDS011;17834;52.992;8.856;2023-11-21T12:47:53;10.90;;;4.28;;
31206;SDS011;17834;52.992;8.856;2023-11-21T12:50:23;8.45;;;4.38;;
31206;SDS011;17834;52.992;8.856;2023-11-21T12:52:53;9.95;;;4.88;;
31206;SDS011;17834;52.992;8.856;2023-11-21T12:55:19;8.35;;;4.85;;
31206;SDS011;17834;52.992;8.856;2023-11-21T12:57:49;8.55;;;4.60;;
31206;SDS011;17834;52.992;8.856;2023-11-21T13:00:32;10.18;;;5.15;;
31206;SDS011;17834;52.992;8.856;2023-11-21T13:03:01;10.63;;;5.82;;
31206;SDS011;17834;52.992;8.856;2023-11-21T13:05:29;6.97;;;4.50;;
31206;SDS011;17834;52.992;8.856;2023-11-21T13:08:01;8.43;;;4.47;;
31206;SDS011;17834;52.992;8.856;2023-11-21T13:10:33;7.68;;;3.60;;
31206;SDS011;17834;52.992;8.856;2023-11-21T13:13:01;6.70;;;3.60;;
31206;SDS011;17834;52.992;8.856;2023-11-21T13:15:30;7.88;;;3.53;;
31206;SDS011;17834;52.992;8.856;2023-11-21T13:17:57;7.13;;;3.78;;
31206;SDS011;17834;52.992;8.856;2023-11-21T13:20:26;5.93;;;3.38;;
31206;SDS011;17834;52.992;8.856;2023-11-21T13:22:53;6.43;;;3.80;;
31206;SDS011;17834;52.992;8.856;2023-11-21T13:25:22;5.85;;;3.22;;
31206;SDS011;17834;52.992;8.856;2023-11-21T13:27:48;6.68;;;3.58;;
31206;SDS011;17834;52.992;8.856;2023-11-21T13:30:16;6.55;;;3.80;;
31206;SDS011;17834;52.992;8.856;2023-11-21T13:32:44;6.95;;;3.30;;
31206;SDS011;17834;52.992;8.856;2023-11-21T13:35:16;7.63;;;3.80;;
31206;SDS011;17834;52.992;8.856;2023-11-21T13:37:55;8.50;;;4.00;;
31206;SDS011;17834;52.992;8.856;2023-11-21T13:40:24;8.55;;;4.35;;
31206;SDS011;17834;52.992;8.856;2023-11-21T13:42:54;6.80;;;3.55;;
31206;SDS011;17834;52.992;8.856;2023-11-21T13:45:23;7.00;;;3.80;;
31206;SDS011;17834;52.992;8.856;2023-11-21T13:47:50;7.53;;;3.70;;
31206;SDS011;17834;52.992;8.856;2023-11-21T13:50:17;7.10;;;3.33;;
31206;SDS011;17834;52.992;8.856;2023-11-21T13:52:47;6.50;;;2.70;;
31206;SDS011;17834;52.992;8.856;2023-11-21T13:55:13;5.40;;;3.30;;
31206;SDS011;17834;52.992;8.856;2023-11-21T13:57:44;5.63;;;2.80;;
31206;SDS011;17834;52.992;8.856;2023-11-21T14:00:14;4.45;;;2.38;;
31206;SDS011;17834;52.992;8.856;2023-11-21T14:03:06;4.72;;;2.72;;
31206;SDS011;17834;52.992;8.856;2023-11-21T14:05:42;5.57;;;3.00;;
31206;SDS011;17834;52.992;8.856;2023-11-21T14:08:09;5.00;;;2.70;;
31206;SDS011;17834;52.992;8.856;2023-11-21T14:10:37;5.22;;;2.70;;
31206;SDS011;17834;52.992;8.856;2023-11-21T14:13:08;5.13;;;2.83;;
31206;SDS011;17834;52.992;8.856;2023-11-21T14:15:35;6.80;;;2.78;;
31206;SDS011;17834;52.992;8.856;2023-11-21T14:18:11;6.47;;;2.97;;
31206;SDS011;17834;52.992;8.856;2023-11-21T14:20:39;6.15;;;3.75;;
31206;SDS011;17834;52.992;8.856;2023-11-21T14:23:06;5.40;;;2.85;;
31206;SDS011;17834;52.992;8.856;2023-11-21T14:25:36;5.30;;;3.00;;
31206;SDS011;17834;52.992;8.856;2023-11-21T14:28:04;7.10;;;3.03;;
31206;SDS011;17834;52.992;8.856;2023-11-21T14:30:31;4.80;;;3.00;;
31206;SDS011;17834;52.992;8.856;2023-11-21T14:32:58;5.57;;;2.65;;
31206;SDS011;17834;52.992;8.856;2023-11-21T14:35:24;5.30;;;2.70;;
31206;SDS011;17834;52.992;8.856;2023-11-21T14:37:51;6.32;;;2.42;;
31206;SDS011;17834;52.992;8.856;2023-11-21T14:40:17;7.93;;;3.22;;
31206;SDS011;17834;52.992;8.856;2023-11-21T14:42:49;6.57;;;3.00;;
31206;SDS011;17834;52.992;8.856;2023-11-21T14:45:17;7.28;;;2.95;;
31206;SDS011;17834;52.992;8.856;2023-11-21T14:47:45;5.97;;;2.95;;